Pagrindinis puslapis
METAR-TAF:

METAR-TAF

Oro uostai :

Venecijos Marko Polo oro uostas

Venecija, Italija

platuma: 45-30N, ilguma: 012-20E, Aukštis: 2 m

Dabartinis oras

Ataskaita buvo paskelbta 25 minutes, ne 19:20 UTC
Vėjas 12 kt iš Rytų/Šiaurės Rytų
Temperatūra 19°C
Drėgmė 56%
Slėgis 1022 hPa
Matomumas 10 km arba daugiau
Su prošvaistėmis ne aukštis 7000 ft

METAR: LIPZ 191920Z 06012KT 9999 BKN070 19/10 Q1022 NOSIG

Laikas: 21:45 (19:45 UTC)

Prognozė

Ataskaita buvo paskelbta 2 valandos ir 45 minutes, ne 17:00 UTC
Prognozė galioja nuo 19 metu 18 UTC su 20 metu 24 UTC
Vėjas 12 kt iš Rytų/Šiaurės Rytų
Matomumas 10 km arba daugiau
Išsisklaidę debesys ne aukštis 5000 ft
Tapsmas
nuo 20 metu 08 UTC su 20 metu 10 UTC
Vėjas 10 kt iš Pietryčių
Tapsmas
nuo 20 metu 16 UTC su 20 metu 18 UTC
Vėjas 12 kt iš Šiaurės Rytų

TAF: LIPZ 191700Z 1918/2024 06012KT 9999 SCT050 BECMG 2008/2010 14010KT BECMG 2016/2018 04012KT

Orai ataskaitas ir orų prognozės (METAR, TAF).

turimą stotys yra geltonos ir raudonos taškus žemėlapyje.

Perkelti pele per norėdami pamatyti stoties vardą.

Tada spustelėkite, norėdami matyti oro stebėjimo ir prognozės.

Norėdami pakeisti žemėlapį: spustelėkite ant žalios mygtukų su juodo kryžiaus žemyn,; žalią mygtuką su brūkšneliu, jei norite nutolinti; arba žalių rodyklių gretimoms žemėlapius.


METAR-TAF: